createdAt,value
2023-10-09T00:01:55.724Z,22.60
2023-10-09T00:04:25.790Z,22.42
2023-10-09T00:06:56.504Z,24.08
2023-10-09T00:09:26.519Z,25.40
2023-10-09T00:11:59.862Z,19.00
2023-10-09T00:14:35.953Z,20.75
2023-10-09T00:17:15.021Z,24.80
2023-10-09T00:19:45.887Z,21.15
2023-10-09T00:22:23.374Z,21.35
2023-10-09T00:25:15.981Z,16.50
2023-10-09T00:27:48.117Z,22.55
2023-10-09T00:30:31.993Z,17.25
2023-10-09T00:33:08.145Z,17.42
2023-10-09T00:35:56.421Z,20.58
2023-10-09T00:38:35.764Z,21.25
2023-10-09T00:41:11.980Z,19.70
2023-10-09T00:43:45.754Z,22.60
2023-10-09T00:46:26.072Z,17.45
2023-10-09T00:49:05.188Z,15.68
2023-10-09T00:51:38.634Z,26.92
2023-10-09T00:54:17.220Z,16.77
2023-10-09T00:56:59.301Z,21.05
2023-10-09T00:59:30.595Z,14.60
2023-10-09T01:02:06.564Z,9.45
2023-10-09T01:04:39.412Z,11.23
2023-10-09T01:07:23.473Z,11.20
2023-10-09T01:09:56.673Z,13.18
2023-10-09T01:12:31.081Z,15.30
2023-10-09T01:15:03.191Z,13.35
2023-10-09T01:17:47.417Z,10.27
2023-10-09T01:20:34.375Z,16.42
2023-10-09T01:23:05.198Z,12.35
2023-10-09T01:25:45.353Z,15.18
2023-10-09T01:28:17.819Z,15.38
2023-10-09T01:30:49.673Z,34.42
2023-10-09T01:33:29.289Z,36.95
2023-10-09T01:36:03.684Z,42.17
2023-10-09T01:38:42.737Z,26.52
2023-10-09T01:41:22.059Z,21.75
2023-10-09T01:43:53.768Z,16.58
2023-10-09T01:46:25.427Z,15.65
2023-10-09T01:48:57.029Z,12.35
2023-10-09T01:51:35.518Z,11.82
2023-10-09T01:54:06.551Z,13.60
2023-10-09T01:56:41.813Z,11.40
2023-10-09T01:59:13.478Z,22.50
2023-10-09T02:01:49.991Z,31.20
2023-10-09T02:04:22.603Z,31.88
2023-10-09T02:06:54.869Z,34.03
2023-10-09T02:09:32.998Z,31.40
2023-10-09T02:12:04.867Z,33.25
2023-10-09T02:14:40.098Z,37.03
2023-10-09T02:17:12.462Z,31.00
2023-10-09T02:19:44.908Z,32.42
2023-10-09T02:22:16.137Z,29.30
2023-10-09T02:24:50.587Z,29.55
2023-10-09T02:27:58.734Z,25.08
2023-10-09T02:30:29.701Z,28.45
2023-10-09T02:33:11.527Z,32.63
2023-10-09T02:35:44.794Z,32.10
2023-10-09T02:38:19.574Z,33.83
2023-10-09T02:41:05.994Z,32.88
2023-10-09T02:43:49.995Z,30.25
2023-10-09T02:46:35.186Z,32.78
2023-10-09T02:49:06.359Z,29.33
2023-10-09T02:51:44.097Z,35.72
2023-10-09T02:54:21.038Z,44.40
2023-10-09T02:57:00.371Z,36.90
2023-10-09T02:59:32.556Z,32.03
2023-10-09T03:02:03.569Z,33.03
2023-10-09T03:04:34.990Z,39.67
2023-10-09T03:07:06.420Z,33.13
2023-10-09T03:09:37.872Z,33.72
2023-10-09T03:12:12.356Z,40.10
2023-10-09T03:14:44.900Z,32.80
2023-10-09T03:17:15.903Z,33.90
2023-10-09T03:19:48.224Z,30.30
2023-10-09T03:22:19.326Z,27.73
2023-10-09T03:24:51.834Z,34.30
2023-10-09T03:27:25.452Z,37.97
2023-10-09T03:29:56.697Z,29.85
2023-10-09T03:32:27.582Z,27.15
2023-10-09T03:35:01.508Z,28.17
2023-10-09T03:37:36.858Z,26.48
2023-10-09T03:40:17.853Z,24.38
2023-10-09T03:42:49.805Z,25.95
2023-10-09T03:45:27.495Z,23.60
2023-10-09T03:48:18.106Z,31.20
2023-10-09T03:50:51.102Z,25.50
2023-10-09T03:53:21.941Z,25.50
2023-10-09T03:55:52.954Z,22.35
2023-10-09T03:58:24.405Z,23.92
2023-10-09T04:00:57.257Z,25.50
2023-10-09T04:03:29.801Z,25.35
2023-10-09T04:06:02.699Z,24.83
2023-10-09T04:08:35.722Z,23.02
2023-10-09T04:11:18.225Z,23.30
2023-10-09T04:13:49.504Z,18.85
2023-10-09T04:16:37.109Z,19.50
2023-10-09T04:19:13.407Z,21.23
2023-10-09T04:21:44.609Z,17.15
2023-10-09T04:24:15.890Z,15.45
2023-10-09T04:26:47.495Z,16.67
2023-10-09T04:29:40.999Z,14.20
2023-10-09T04:32:19.496Z,13.35
2023-10-09T04:34:51.111Z,11.40
2023-10-09T04:37:40.253Z,13.05
2023-10-09T04:40:15.784Z,13.77
2023-10-09T04:43:00.246Z,12.05
2023-10-09T04:45:46.191Z,16.25
2023-10-09T04:48:34.841Z,11.40
2023-10-09T04:51:36.377Z,7.25
2023-10-09T04:54:17.011Z,5.30
2023-10-09T04:56:57.099Z,6.80
2023-10-09T04:59:28.285Z,7.05
2023-10-09T05:02:00.547Z,7.78
2023-10-09T05:04:40.714Z,4.80
2023-10-09T05:07:38.937Z,9.00
2023-10-09T05:10:22.205Z,6.85
2023-10-09T05:13:00.342Z,6.80
2023-10-09T05:15:32.006Z,7.50
2023-10-09T05:18:11.492Z,6.47
2023-10-09T05:21:05.070Z,8.95
2023-10-09T05:23:46.626Z,8.77
2023-10-09T05:26:36.530Z,7.15
2023-10-09T05:29:27.420Z,9.40
2023-10-09T05:32:08.058Z,6.93
2023-10-09T05:34:58.651Z,13.60
2023-10-09T05:37:35.723Z,12.27
2023-10-09T05:40:37.344Z,15.38
2023-10-09T05:43:08.519Z,15.52
2023-10-09T05:45:57.268Z,9.93
2023-10-09T05:48:28.182Z,9.63
2023-10-09T05:51:11.627Z,8.95
2023-10-09T05:53:48.531Z,5.80
2023-10-09T05:56:46.890Z,6.85
2023-10-09T05:59:35.814Z,6.50
2023-10-09T06:02:24.515Z,7.93
2023-10-09T06:05:00.028Z,5.80
2023-10-09T06:07:50.789Z,3.42
2023-10-09T06:10:39.696Z,8.00
2023-10-09T06:13:30.933Z,10.95
2023-10-09T06:16:30.929Z,11.15
2023-10-09T06:19:10.658Z,12.88
2023-10-09T06:21:44.686Z,10.05
2023-10-09T06:24:15.887Z,12.90
2023-10-09T06:27:16.093Z,8.27
2023-10-09T06:29:46.974Z,11.00
2023-10-09T06:32:21.009Z,13.77
2023-10-09T06:34:59.327Z,10.02
2023-10-09T06:37:32.963Z,9.25
2023-10-09T06:40:32.672Z,13.15
2023-10-09T06:43:09.498Z,14.45
2023-10-09T06:45:46.879Z,22.42
2023-10-09T06:48:36.201Z,26.23
2023-10-09T06:51:29.551Z,23.38
2023-10-09T06:54:01.182Z,13.40
2023-10-09T06:56:32.869Z,17.90
2023-10-09T06:59:17.255Z,17.88
2023-10-09T07:02:06.508Z,14.55
2023-10-09T07:04:40.786Z,20.85
2023-10-09T07:07:17.122Z,23.23
2023-10-09T07:10:08.444Z,17.08
2023-10-09T07:12:44.884Z,14.93
2023-10-09T07:15:48.000Z,20.20
2023-10-09T07:18:25.371Z,20.95
2023-10-09T07:21:03.801Z,20.70
2023-10-09T07:23:34.949Z,17.52
2023-10-09T07:26:29.662Z,21.38
2023-10-09T07:29:55.549Z,17.77
2023-10-09T07:32:45.799Z,22.27
2023-10-09T07:35:36.084Z,19.63
2023-10-09T07:38:11.017Z,23.50
2023-10-09T07:41:02.491Z,21.77
2023-10-09T07:43:41.477Z,14.35
2023-10-09T07:46:34.559Z,19.38
2023-10-09T07:49:16.459Z,21.25
2023-10-09T07:51:49.214Z,18.48
2023-10-09T07:54:34.160Z,22.60
2023-10-09T07:57:20.100Z,18.13
2023-10-09T08:00:26.128Z,26.42
2023-10-09T08:03:02.519Z,23.27
2023-10-09T08:05:35.706Z,19.60
2023-10-09T08:08:36.132Z,21.60
2023-10-09T08:11:30.244Z,22.50
2023-10-09T08:14:04.434Z,20.17
2023-10-09T08:16:43.141Z,21.95
2023-10-09T08:19:43.446Z,18.80
2023-10-09T08:22:40.360Z,18.75
2023-10-09T08:25:28.529Z,23.40
2023-10-09T08:28:22.095Z,27.80
2023-10-09T08:30:57.164Z,26.83
2023-10-09T08:36:07.106Z,29.67
2023-10-09T08:38:38.167Z,25.95
2023-10-09T08:41:22.697Z,24.20
2023-10-09T08:43:55.444Z,21.08
2023-10-09T08:46:31.064Z,32.03
2023-10-09T08:49:02.679Z,28.48
2023-10-09T08:51:37.533Z,28.25
2023-10-09T08:54:16.921Z,24.92
2023-10-09T08:56:54.025Z,30.55
2023-10-09T08:59:24.857Z,28.67
2023-10-09T09:01:56.362Z,25.17
2023-10-09T09:04:43.776Z,26.83
2023-10-09T09:07:41.438Z,23.65
2023-10-09T09:10:25.459Z,24.90
2023-10-09T09:13:02.968Z,24.95
2023-10-09T09:15:33.931Z,20.02
2023-10-09T09:18:13.960Z,17.05
2023-10-09T09:20:47.731Z,20.77
2023-10-09T09:23:26.004Z,23.95
2023-10-09T09:26:06.108Z,25.17
2023-10-09T09:28:41.313Z,19.75
2023-10-09T09:31:24.480Z,32.03
2023-10-09T09:34:05.616Z,21.30
2023-10-09T09:36:40.227Z,20.00
2023-10-09T09:39:21.410Z,28.83
2023-10-09T09:41:54.393Z,24.65
2023-10-09T09:44:32.924Z,25.58
2023-10-09T09:47:04.142Z,23.55
2023-10-09T09:49:36.130Z,25.42
2023-10-09T09:52:12.216Z,23.48
2023-10-09T09:54:43.196Z,31.00
2023-10-09T09:57:24.111Z,26.83
2023-10-09T09:59:57.578Z,25.33
2023-10-09T10:02:37.897Z,30.75
2023-10-09T10:05:13.643Z,30.45
2023-10-09T10:07:51.733Z,23.95
2023-10-09T10:10:50.114Z,22.90
2023-10-09T10:13:41.163Z,19.08
2023-10-09T10:16:22.224Z,24.73
2023-10-09T10:19:09.705Z,26.63
2023-10-09T10:21:40.659Z,20.88
2023-10-09T10:24:33.443Z,23.70
2023-10-09T10:27:42.586Z,23.65
2023-10-09T10:30:15.756Z,21.33
2023-10-09T10:32:57.165Z,30.65
2023-10-09T10:35:46.884Z,31.33
2023-10-09T10:38:44.365Z,26.15
2023-10-09T10:41:24.531Z,21.60
2023-10-09T10:43:55.486Z,23.95
2023-10-09T10:46:31.773Z,20.48
2023-10-09T10:49:27.934Z,17.50
2023-10-09T10:52:24.624Z,19.35
2023-10-09T10:55:19.941Z,22.58
2023-10-09T10:57:58.163Z,19.17
2023-10-09T11:00:48.180Z,24.67
2023-10-09T11:03:32.226Z,25.67
2023-10-09T11:06:16.982Z,24.88
2023-10-09T11:09:01.262Z,19.30
2023-10-09T11:11:34.851Z,27.02
2023-10-09T11:14:18.062Z,29.63
2023-10-09T11:16:52.030Z,21.85
2023-10-09T11:19:30.386Z,18.25
2023-10-09T11:22:09.645Z,30.20
2023-10-09T11:24:40.729Z,24.02
2023-10-09T11:27:20.884Z,27.05
2023-10-09T11:29:52.326Z,25.65
2023-10-09T11:32:27.415Z,27.60
2023-10-09T11:35:30.214Z,26.45
2023-10-09T11:38:01.801Z,24.65
2023-10-09T11:40:54.068Z,24.60
2023-10-09T11:43:47.169Z,24.25
2023-10-09T11:46:38.675Z,29.95
2023-10-09T11:49:24.071Z,22.70
2023-10-09T11:52:27.335Z,41.85
2023-10-09T11:54:58.914Z,66.63
2023-10-09T11:57:35.508Z,57.72
2023-10-09T12:00:30.872Z,93.22
2023-10-09T12:03:07.954Z,100.95
2023-10-09T12:05:39.797Z,114.05
2023-10-09T12:08:10.889Z,131.60
2023-10-09T12:10:42.457Z,98.95
2023-10-09T12:13:17.781Z,66.68
2023-10-09T12:15:48.853Z,53.75
2023-10-09T12:18:21.064Z,43.05
2023-10-09T12:20:57.392Z,39.97
2023-10-09T12:23:30.063Z,35.10
2023-10-09T12:26:01.212Z,39.10
2023-10-09T12:28:35.110Z,40.33
2023-10-09T12:31:06.084Z,43.92
2023-10-09T12:33:41.871Z,41.97
2023-10-09T12:36:22.094Z,40.05
2023-10-09T12:38:56.256Z,34.70
2023-10-09T12:41:28.934Z,33.05
2023-10-09T12:44:04.078Z,39.80
2023-10-09T12:46:39.814Z,35.75
2023-10-09T12:49:10.870Z,36.08
2023-10-09T12:51:42.517Z,33.20
2023-10-09T12:54:16.957Z,32.72
2023-10-09T12:56:53.223Z,37.45
2023-10-09T12:59:26.323Z,34.97
2023-10-09T13:02:00.303Z,35.63
2023-10-09T13:04:34.157Z,35.30
2023-10-09T13:07:06.564Z,35.05
2023-10-09T13:09:38.032Z,35.70
2023-10-09T13:12:20.230Z,34.92
2023-10-09T13:14:54.343Z,31.02
2023-10-09T13:17:29.330Z,27.27
2023-10-09T13:20:00.570Z,33.88
2023-10-09T13:22:32.614Z,29.25
2023-10-09T13:25:06.533Z,38.67
2023-10-09T13:27:37.891Z,38.40
2023-10-09T13:30:11.292Z,38.17
2023-10-09T13:32:42.141Z,37.60
2023-10-09T13:35:17.034Z,37.30
2023-10-09T13:37:56.141Z,31.65
2023-10-09T13:40:31.804Z,29.70
2023-10-09T13:43:02.887Z,26.77
2023-10-09T13:45:40.734Z,29.17
2023-10-09T13:48:13.804Z,30.80
2023-10-09T13:50:44.974Z,37.47
2023-10-09T13:53:20.141Z,37.80
2023-10-09T13:55:53.630Z,41.45
2023-10-09T13:58:24.525Z,41.97
2023-10-09T14:00:55.763Z,38.80
2023-10-09T14:03:31.284Z,34.90
2023-10-09T14:06:12.374Z,31.65
2023-10-09T14:08:45.072Z,34.10
2023-10-09T14:11:15.725Z,33.00
2023-10-09T14:13:48.374Z,31.42
2023-10-09T14:16:29.618Z,29.38
2023-10-09T14:19:01.461Z,30.55
2023-10-09T14:21:32.381Z,30.17
2023-10-09T14:24:02.952Z,29.45
2023-10-09T14:26:36.449Z,26.77
2023-10-09T14:29:08.844Z,28.67
2023-10-09T14:31:41.064Z,31.60
2023-10-09T14:34:11.767Z,28.38
2023-10-09T14:36:45.990Z,35.60
2023-10-09T14:39:21.005Z,34.28
2023-10-09T14:41:53.070Z,29.83
2023-10-09T14:44:25.733Z,31.02
2023-10-09T14:46:57.736Z,31.70
2023-10-09T14:49:28.648Z,27.60
2023-10-09T14:52:01.249Z,24.20
2023-10-09T14:54:31.928Z,27.33
2023-10-09T14:57:02.861Z,27.05
2023-10-09T14:59:33.399Z,30.60
2023-10-09T15:02:04.267Z,23.60
2023-10-09T15:04:38.007Z,25.45
2023-10-09T15:07:12.795Z,23.00
2023-10-09T15:09:46.759Z,24.45
2023-10-09T15:12:17.722Z,26.88
2023-10-09T15:14:48.234Z,23.05
2023-10-09T15:17:21.229Z,21.10
2023-10-09T15:19:57.162Z,22.83
2023-10-09T15:22:30.727Z,23.88
2023-10-09T15:25:04.564Z,25.88
2023-10-09T15:27:35.234Z,26.42
2023-10-09T15:30:08.992Z,24.92
2023-10-09T15:32:40.300Z,27.90
2023-10-09T15:35:17.070Z,22.48
2023-10-09T15:37:54.421Z,30.27
2023-10-09T15:40:26.760Z,23.33
2023-10-09T15:42:58.710Z,28.73
2023-10-09T15:45:33.526Z,27.88
2023-10-09T15:48:06.885Z,28.98
2023-10-09T15:50:37.602Z,28.42
2023-10-09T15:53:12.394Z,21.27
2023-10-09T15:55:43.194Z,18.55
2023-10-09T15:58:14.260Z,24.90
2023-10-09T16:00:47.649Z,22.70
2023-10-09T16:03:19.154Z,18.17
2023-10-09T16:05:49.805Z,18.00
2023-10-09T16:08:21.443Z,14.35
2023-10-09T16:10:52.160Z,22.50
2023-10-09T16:13:23.493Z,19.92
2023-10-09T16:15:53.361Z,17.35
2023-10-09T16:18:23.448Z,14.00
2023-10-09T16:20:54.189Z,15.52
2023-10-09T16:23:24.545Z,19.25
2023-10-09T16:25:54.636Z,14.90
2023-10-09T16:28:24.648Z,13.05
2023-10-09T16:30:56.045Z,13.05
2023-10-09T16:33:28.017Z,15.02
2023-10-09T16:36:01.494Z,11.18
2023-10-09T16:38:33.357Z,9.48
2023-10-09T16:41:12.502Z,10.30
2023-10-09T16:43:47.382Z,13.63
2023-10-09T16:46:18.975Z,11.32
2023-10-09T16:48:53.719Z,11.35
2023-10-09T16:51:24.050Z,8.05
2023-10-09T16:53:56.891Z,14.52
2023-10-09T16:56:34.838Z,11.88
2023-10-09T16:59:05.986Z,19.20
2023-10-09T17:01:36.020Z,14.02
2023-10-09T17:04:13.687Z,12.95
2023-10-09T17:06:45.902Z,17.15
2023-10-09T17:09:16.905Z,14.85
2023-10-09T17:11:46.870Z,16.73
2023-10-09T17:14:18.963Z,14.00
2023-10-09T17:16:49.520Z,18.10
2023-10-09T17:19:19.635Z,16.08
2023-10-09T17:21:51.837Z,14.48
2023-10-09T17:24:22.658Z,17.92
2023-10-09T17:26:57.735Z,17.83
2023-10-09T17:29:29.143Z,14.60
2023-10-09T17:31:59.146Z,20.27
2023-10-09T17:34:29.454Z,25.42
2023-10-09T17:36:59.590Z,16.95
2023-10-09T17:39:29.596Z,15.85
2023-10-09T17:42:00.171Z,16.30
2023-10-09T17:44:33.143Z,15.63
2023-10-09T17:47:03.575Z,14.88
2023-10-09T17:49:33.832Z,20.83
2023-10-09T17:52:03.755Z,20.52
2023-10-09T17:54:36.636Z,12.73
2023-10-09T17:57:06.522Z,16.48
2023-10-09T17:59:37.023Z,22.23
2023-10-09T18:02:07.308Z,17.95
2023-10-09T18:04:37.532Z,17.92
2023-10-09T18:07:07.514Z,15.48
2023-10-09T18:09:37.646Z,15.90
2023-10-09T18:12:07.428Z,14.23
2023-10-09T18:14:37.297Z,14.07
2023-10-09T18:17:08.777Z,9.38
2023-10-09T18:19:41.034Z,12.30
2023-10-09T18:22:14.176Z,9.57
2023-10-09T18:24:44.687Z,8.25
2023-10-09T18:27:18.761Z,8.90
2023-10-09T18:29:50.530Z,10.02
2023-10-09T18:32:21.147Z,9.18
2023-10-09T18:34:51.082Z,10.18
2023-10-09T18:37:21.143Z,7.47
2023-10-09T18:39:51.734Z,8.80
2023-10-09T18:42:21.986Z,6.93
2023-10-09T18:44:51.972Z,7.25
2023-10-09T18:47:22.261Z,7.57
2023-10-09T18:49:52.232Z,10.95
2023-10-09T18:52:23.524Z,9.18
2023-10-09T18:54:54.090Z,12.52
2023-10-09T18:57:26.081Z,9.50
2023-10-09T18:59:56.029Z,10.13
2023-10-09T19:02:28.133Z,11.63
2023-10-09T19:04:58.293Z,10.13
2023-10-09T19:07:29.187Z,9.05
2023-10-09T19:09:59.129Z,8.77
2023-10-09T19:12:28.918Z,9.38
2023-10-09T19:14:59.415Z,6.20
2023-10-09T19:17:29.360Z,8.13
2023-10-09T19:19:59.439Z,10.65
2023-10-09T19:22:29.506Z,14.75
2023-10-09T19:25:00.922Z,12.63
2023-10-09T19:27:32.425Z,9.52
2023-10-09T19:30:06.286Z,9.73
2023-10-09T19:32:36.517Z,8.73
2023-10-09T19:35:06.866Z,9.77
2023-10-09T19:37:36.810Z,12.10
2023-10-09T19:40:10.181Z,12.30
2023-10-09T19:42:41.004Z,12.07
2023-10-09T19:45:12.863Z,12.40
2023-10-09T19:47:42.841Z,10.82
2023-10-09T19:50:16.174Z,13.43
2023-10-09T19:52:50.155Z,10.82
2023-10-09T19:55:23.714Z,10.05
2023-10-09T19:57:56.735Z,12.02
2023-10-09T20:00:26.560Z,15.60
2023-10-09T20:02:56.720Z,14.30
2023-10-09T20:05:29.690Z,14.75
2023-10-09T20:08:01.225Z,15.55
2023-10-09T20:10:32.848Z,14.27
2023-10-09T20:13:05.985Z,14.98
2023-10-09T20:15:36.800Z,15.15
2023-10-09T20:18:11.406Z,17.75
2023-10-09T20:20:47.403Z,12.25
2023-10-09T20:23:20.190Z,20.55
2023-10-09T20:26:01.071Z,18.25
2023-10-09T20:28:30.968Z,17.98
2023-10-09T20:31:03.462Z,17.30
2023-10-09T20:33:38.166Z,17.27
2023-10-09T20:36:18.569Z,12.82
2023-10-09T20:38:51.198Z,22.63
2023-10-09T20:41:29.537Z,15.60
2023-10-09T20:44:07.427Z,14.18
2023-10-09T20:46:38.306Z,15.18
2023-10-09T20:49:09.869Z,22.83
2023-10-09T20:51:54.949Z,17.88
2023-10-09T20:54:29.792Z,17.98
2023-10-09T20:57:05.048Z,18.45
2023-10-09T20:59:37.894Z,16.88
2023-10-09T21:02:08.821Z,26.05
2023-10-09T21:04:38.803Z,20.00
2023-10-09T21:07:14.056Z,23.13
2023-10-09T21:09:50.052Z,18.23
2023-10-09T21:12:24.226Z,22.55
2023-10-09T21:14:54.193Z,23.25
2023-10-09T21:17:24.673Z,21.42
2023-10-09T21:19:54.824Z,27.60
2023-10-09T21:22:24.905Z,27.52
2023-10-09T21:24:57.685Z,32.55
2023-10-09T21:27:27.626Z,33.55
2023-10-09T21:30:00.416Z,27.48
2023-10-09T21:32:42.719Z,27.63
2023-10-09T21:35:19.660Z,29.95
2023-10-09T21:38:03.260Z,29.88
2023-10-09T21:40:35.361Z,25.55
2023-10-09T21:43:19.019Z,25.45
2023-10-09T21:45:51.524Z,28.08
2023-10-09T21:48:21.626Z,25.98
2023-10-09T21:51:05.571Z,26.15
2023-10-09T21:53:36.372Z,28.20
2023-10-09T21:56:16.140Z,26.77
2023-10-09T21:58:50.391Z,21.58
2023-10-09T22:01:32.909Z,32.00
2023-10-09T22:04:02.841Z,19.95
2023-10-09T22:06:35.976Z,23.70
2023-10-09T22:09:09.615Z,27.42
2023-10-09T22:11:39.575Z,34.17
2023-10-09T22:14:09.430Z,28.85
2023-10-09T22:16:42.364Z,27.05
2023-10-09T22:19:16.876Z,27.38
2023-10-09T22:21:49.620Z,32.92
2023-10-09T22:24:20.892Z,33.25
2023-10-09T22:26:53.208Z,28.10
2023-10-09T22:29:29.553Z,33.70
2023-10-09T22:32:01.635Z,28.77
2023-10-09T22:34:44.748Z,28.27
2023-10-09T22:37:21.673Z,31.75
2023-10-09T22:39:54.106Z,31.27
2023-10-09T22:42:28.862Z,23.77
2023-10-09T22:45:07.002Z,24.42
2023-10-09T22:47:46.755Z,22.52
2023-10-09T22:50:24.425Z,21.30
2023-10-09T22:52:57.910Z,22.10
2023-10-09T22:55:37.789Z,15.32
2023-10-09T22:58:15.225Z,19.23
2023-10-09T23:00:56.526Z,21.08
2023-10-09T23:03:30.918Z,21.50
2023-10-09T23:06:17.311Z,24.58
2023-10-09T23:08:58.137Z,18.23
2023-10-09T23:11:33.460Z,23.38
2023-10-09T23:14:43.579Z,21.58
2023-10-09T23:17:20.351Z,19.10
2023-10-09T23:20:01.355Z,22.77
2023-10-09T23:22:40.167Z,16.80
2023-10-09T23:25:33.631Z,20.25
2023-10-09T23:28:31.790Z,20.90
2023-10-09T23:31:02.748Z,18.42
2023-10-09T23:33:34.837Z,24.60
2023-10-09T23:36:07.865Z,20.63
2023-10-09T23:38:57.586Z,26.30
2023-10-09T23:41:28.147Z,21.30
2023-10-09T23:43:58.168Z,24.33
2023-10-09T23:46:32.401Z,16.67
2023-10-09T23:49:02.212Z,20.48
2023-10-09T23:51:32.089Z,16.42
2023-10-09T23:54:12.165Z,25.25
2023-10-09T23:56:49.228Z,22.10
2023-10-09T23:59:41.010Z,21.90
